Rockton, Pennsylvania
Current Conditions -  °F | °C
As of 8:54 AM on Sunday 25 Jan 2015 (Local Time) from KFIG Reporting Station
Overcast Overcast  
Wind Chill: 33°   Ceiling: 1400
Heat Index: 33°   Visibility: 10mi
Dew Point: 30°   Wind: 3mph
Humidity: 89%   Direction: 260°W
Pressure: 29.73"   Gusts: NA
Location:  41.08°N, 78.65°W
Report Text: KFIG 251354Z AUTO 26003KT 10SM OVC014 01/M01 A2973 RMK AO2 SLP085 T00061011
Loading
Personal Weather Stations






























Interactive Weather Map New forecast layout! Learn more

10-Day Weather Forecast

Advertisements
Track Severe Weather on mobile